Time;durP1;ratioP1;P1;durP2;ratioP2;P2;SDS_P1;SDS_P2;PMS_P1;PMS_P2;Temp;Humidity;BMP_temperature;BMP_pressure;BME280_temperature;BME280_humidity;BME280_pressure;Samples;Min_cycle;Max_cycle;Signal;HPM_P1;HPM_P2
2021/03/04 00:00:06;;;;;;;69.38;33.60;;;6.90;83.00;;;;;;4978831;28;20044;-76
2021/03/04 00:02:31;;;;;;;65.88;30.95;;;6.90;85.20;;;;;;4985017;28;20044;-76
2021/03/04 00:04:57;;;;;;;67.35;31.63;;;6.90;82.70;;;;;;5009111;28;20025;-76
2021/03/04 00:07:22;;;;;;;70.72;33.10;;;6.80;83.20;;;;;;4995089;28;20108;-76
2021/03/04 00:09:48;;;;;;;51.88;26.83;;;6.60;84.10;;;;;;4977934;28;20403;-76
2021/03/04 00:12:13;;;;;;;62.92;28.00;;;6.80;82.90;;;;;;4991321;28;20452;-76
2021/03/04 00:14:39;;;;;;;58.70;28.83;;;6.80;83.20;;;;;;5014718;28;20038;-75
2021/03/04 00:17:04;;;;;;;59.90;30.08;;;6.60;83.80;;;;;;4978804;28;20437;-76
2021/03/04 00:19:30;;;;;;;64.00;29.10;;;6.60;83.80;;;;;;4990168;28;20046;-76
2021/03/04 00:21:55;;;;;;;70.53;31.40;;;6.60;84.10;;;;;;5004240;28;20425;-76
2021/03/04 00:24:21;;;;;;;43.03;22.80;;;6.50;83.80;;;;;;4976684;28;20112;-75
2021/03/04 00:26:47;;;;;;;58.97;27.08;;;6.60;84.00;;;;;;5004922;28;20026;-76
2021/03/04 00:29:15;;;;;;;52.10;26.55;;;6.70;83.90;;;;;;4977332;28;20354;-76
2021/03/04 00:31:40;;;;;;;62.28;26.70;;;6.80;82.90;;;;;;5004131;28;20034;-76
2021/03/04 00:34:06;;;;;;;47.28;22.48;;;6.70;82.80;;;;;;5002686;28;20499;-76
2021/03/04 00:36:32;;;;;;;45.70;24.33;;;6.70;83.20;;;;;;4984616;28;20242;-76
2021/03/04 00:38:58;;;;;;;48.50;23.45;;;6.60;83.40;;;;;;4992111;28;20029;-76
2021/03/04 00:41:23;;;;;;;57.95;25.73;;;6.60;82.70;;;;;;4970311;28;20168;-76
2021/03/04 00:43:49;;;;;;;71.38;32.60;;;6.70;82.90;;;;;;5018719;28;20129;-76
2021/03/04 00:46:14;;;;;;;74.18;35.45;;;6.70;83.20;;;;;;4993825;28;20511;-76
2021/03/04 00:48:40;;;;;;;74.97;34.28;;;6.60;84.00;;;;;;5017197;28;20036;-76
2021/03/04 00:51:05;;;;;;;76.03;37.53;;;6.50;84.40;;;;;;4977060;28;20053;-76
2021/03/04 00:53:31;;;;;;;80.97;37.88;;;6.40;84.60;;;;;;4988137;28;20068;-76
2021/03/04 00:55:56;;;;;;;76.32;38.97;;;6.30;85.10;;;;;;5017934;28;20061;-76
2021/03/04 00:58:22;;;;;;;84.60;41.15;;;6.40;85.30;;;;;;5001016;28;20033;-75
2021/03/04 01:00:47;;;;;;;83.18;39.53;;;6.40;85.00;;;;;;5004407;28;20062;-76
2021/03/04 01:03:13;;;;;;;82.75;39.47;;;6.50;85.20;;;;;;4975778;28;20026;-76
2021/03/04 01:05:38;;;;;;;86.97;40.50;;;6.30;86.10;;;;;;5013488;28;20137;-76
2021/03/04 01:08:04;;;;;;;50.95;27.13;;;6.20;86.80;;;;;;5017731;28;20036;-76
2021/03/04 01:10:36;;;;;;;62.28;32.78;;;6.30;85.60;;;;;;4984115;28;20117;-76
2021/03/04 01:13:02;;;;;;;85.68;39.60;;;6.30;85.60;;;;;;4984044;28;20036;-76
2021/03/04 01:15:28;;;;;;;76.63;38.72;;;6.30;85.70;;;;;;4999775;28;20021;-76
2021/03/04 01:17:53;;;;;;;83.50;39.17;;;6.30;87.20;;;;;;5004665;28;20030;-75
2021/03/04 01:20:19;;;;;;;77.57;38.45;;;6.30;86.90;;;;;;4989625;28;20132;-78
2021/03/04 01:22:45;;;;;;;75.85;39.28;;;6.20;87.50;;;;;;5016797;28;20030;-78
2021/03/04 01:25:10;;;;;;;70.97;36.05;;;6.10;88.30;;;;;;4993263;28;20374;-78
2021/03/04 01:27:36;;;;;;;81.25;41.33;;;6.20;86.70;;;;;;5018471;28;20049;-78
2021/03/04 01:30:04;;;;;;;59.28;28.92;;;6.30;86.90;;;;;;5018961;28;20027;-78
2021/03/04 01:32:29;;;;;;;54.75;25.67;;;6.40;85.20;;;;;;4973445;28;20044;-78
2021/03/04 01:34:55;;;;;;;58.00;31.02;;;6.60;84.10;;;;;;5004758;28;20112;-75
2021/03/04 01:37:20;;;;;;;58.33;30.30;;;6.60;84.90;;;;;;4974433;28;20028;-75
2021/03/04 01:39:46;;;;;;;59.92;27.02;;;6.50;83.20;;;;;;5002445;28;20414;-76
2021/03/04 01:42:11;;;;;;;57.20;28.65;;;6.50;82.20;;;;;;4958720;28;20049;-79
2021/03/04 01:44:40;;;;;;;70.05;32.70;;;6.50;84.10;;;;;;5018293;28;20030;-79
2021/03/04 01:47:05;;;;;;;73.55;37.10;;;6.30;86.70;;;;;;4993683;28;20363;-77
2021/03/04 01:49:31;;;;;;;54.55;25.40;;;6.10;88.00;;;;;;4974630;28;20048;-78
2021/03/04 01:51:57;;;;;;;65.50;33.42;;;6.20;87.50;;;;;;5013935;28;20041;-76
2021/03/04 01:54:22;;;;;;;68.95;34.25;;;6.40;85.80;;;;;;4996342;28;20048;-79
2021/03/04 01:56:48;;;;;;;62.92;31.42;;;6.30;87.10;;;;;;5009465;28;20033;-76
2021/03/04 01:59:13;;;;;;;44.55;24.45;;;6.30;84.90;;;;;;4997782;28;20034;-77
2021/03/04 02:01:39;;;;;;;47.85;24.40;;;6.40;85.00;;;;;;5012474;28;20034;-78
2021/03/04 02:04:05;;;;;;;84.43;37.97;;;6.30;85.00;;;;;;4984207;28;20037;-78
2021/03/04 02:06:55;;;;;;;56.55;27.55;;;6.30;85.90;;;;;;4997992;28;20041;-77
2021/03/04 02:09:21;;;;;;;53.03;27.17;;;6.40;84.10;;;;;;5011909;28;20503;-78
2021/03/04 02:11:53;;;;;;;49.65;24.60;;;6.50;83.90;;;;;;5024445;28;20038;-78
2021/03/04 02:14:33;;;;;;;39.83;21.50;;;6.50;83.30;;;;;;4992100;28;20037;-78
2021/03/04 02:17:00;;;;;;;37.80;21.00;;;6.40;83.50;;;;;;5023189;28;20032;-78
2021/03/04 02:19:40;;;;;;;47.30;24.08;;;6.30;83.00;;;;;;4991299;28;20108;-78
2021/03/04 02:22:16;;;;;;;71.93;34.58;;;6.40;83.80;;;;;;5022324;28;20029;-78
2021/03/04 02:24:48;;;;;;;74.95;36.70;;;6.20;86.40;;;;;;5009283;28;20129;-78
2021/03/04 02:27:15;;;;;;;76.68;37.88;;;6.10;87.80;;;;;;5022172;28;20122;-78
2021/03/04 02:30:03;;;;;;;76.22;38.90;;;6.10;89.00;;;;;;5004195;28;20434;-78
2021/03/04 02:32:29;;;;;;;76.53;38.95;;;6.10;88.50;;;;;;4989850;28;20038;-78
2021/03/04 02:35:07;;;;;;;86.20;39.72;;;6.20;87.70;;;;;;5023402;28;20037;-78
2021/03/04 02:37:35;;;;;;;66.25;32.60;;;6.20;86.60;;;;;;4988623;28;20457;-77
2021/03/04 02:40:01;;;;;;;63.00;32.20;;;6.30;84.60;;;;;;5014045;28;20517;-78
2021/03/04 02:42:26;;;;;;;84.70;38.90;;;6.30;85.20;;;;;;4979687;28;20056;-77
2021/03/04 02:44:54;;;;;;;82.22;39.13;;;6.20;86.80;;;;;;5011229;28;20076;-78
2021/03/04 02:47:20;;;;;;;71.78;36.35;;;6.10;88.70;;;;;;4977557;28;20034;-77
2021/03/04 02:49:45;;;;;;;76.50;36.20;;;6.00;89.40;;;;;;5021092;28;20104;-77
2021/03/04 02:52:11;;;;;;;81.70;41.85;;;6.10;89.30;;;;;;4979406;28;20547;-78
2021/03/04 02:54:36;;;;;;;94.68;42.42;;;6.00;90.10;;;;;;5008468;28;20489;-78
2021/03/04 02:57:03;;;;;;;82.07;41.70;;;6.00;90.50;;;;;;4998502;28;20183;-78
2021/03/04 02:59:30;;;;;;;101.63;46.72;;;6.10;90.30;;;;;;4980809;28;20744;-77
2021/03/04 03:01:55;;;;;;;103.07;49.45;;;6.10;90.10;;;;;;5020021;28;20033;-78
2021/03/04 03:04:21;;;;;;;99.68;50.15;;;6.10;90.80;;;;;;5007681;28;20033;-78
2021/03/04 03:06:47;;;;;;;97.22;46.47;;;6.10;90.80;;;;;;5019477;28;20374;-78
2021/03/04 03:09:12;;;;;;;98.15;48.20;;;6.10;91.10;;;;;;4977253;28;20089;-78
2021/03/04 03:11:38;;;;;;;106.00;48.95;;;6.10;91.20;;;;;;5003707;28;20061;-78
2021/03/04 03:14:03;;;;;;;114.35;50.63;;;6.20;90.50;;;;;;4982156;28;20129;-78
2021/03/04 03:16:29;;;;;;;103.15;49.60;;;6.20;91.20;;;;;;4992338;28;20033;-78
2021/03/04 03:18:55;;;;;;;105.82;50.65;;;6.20;91.60;;;;;;5018496;28;20068;-78
2021/03/04 03:21:20;;;;;;;95.95;47.28;;;6.20;92.00;;;;;;4991791;28;20056;-78
2021/03/04 03:23:46;;;;;;;107.03;48.70;;;6.20;90.90;;;;;;5017643;28;20030;-78
2021/03/04 03:26:11;;;;;;;100.05;48.50;;;6.20;90.80;;;;;;4992535;28;20056;-78
2021/03/04 03:28:38;;;;;;;102.63;51.97;;;6.20;91.10;;;;;;5018506;28;20038;-78
2021/03/04 03:31:03;;;;;;;104.25;51.92;;;6.20;91.90;;;;;;4995972;28;20048;-78
2021/03/04 03:33:29;;;;;;;97.57;47.60;;;6.20;91.20;;;;;;4973045;28;20038;-78
2021/03/04 03:35:54;;;;;;;102.68;50.20;;;6.20;91.60;;;;;;4991296;28;20039;-78
2021/03/04 03:38:20;;;;;;;116.07;51.08;;;6.20;91.50;;;;;;4989872;28;20030;-78
2021/03/04 03:40:47;;;;;;;101.90;46.28;;;6.20;91.80;;;;;;5020640;28;20481;-77
2021/03/04 03:43:14;;;;;;;101.15;50.10;;;6.20;91.50;;;;;;4988019;28;20108;-78
2021/03/04 03:45:41;;;;;;;93.57;46.85;;;6.20;92.00;;;;;;4994685;28;20584;-77
2021/03/04 03:48:17;;;;;;;93.80;46.05;;;6.20;91.40;;;;;;5005971;28;20029;-77
2021/03/04 03:50:43;;;;;;;108.93;51.08;;;6.20;91.70;;;;;;4983263;28;20096;-78
2021/03/04 03:53:11;;;;;;;93.75;46.38;;;6.20;91.60;;;;;;4987439;28;20381;-78
2021/03/04 03:55:36;;;;;;;94.13;49.42;;;6.20;91.60;;;;;;5018417;28;20030;-77
2021/03/04 03:58:02;;;;;;;94.43;44.55;;;6.20;91.50;;;;;;4995286;28;20489;-79
2021/03/04 04:00:28;;;;;;;89.40;43.78;;;6.10;91.40;;;;;;4968979;28;20026;-79
2021/03/04 04:03:02;;;;;;;93.28;46.08;;;6.10;91.40;;;;;;5020046;28;20026;-79
2021/03/04 04:05:28;;;;;;;93.28;45.13;;;6.10;90.80;;;;;;4981318;28;20026;-78
2021/03/04 04:07:54;;;;;;;86.22;43.47;;;6.00;91.30;;;;;;5008001;28;20045;-79
2021/03/04 04:10:28;;;;;;;70.70;35.33;;;6.00;91.30;;;;;;5005546;28;20088;-79
2021/03/04 04:12:53;;;;;;;88.85;43.92;;;6.00;90.30;;;;;;5022768;28;20500;-79
2021/03/04 04:15:19;;;;;;;88.35;44.67;;;5.90;90.40;;;;;;4977464;28;20029;-78
2021/03/04 04:17:45;;;;;;;87.97;43.17;;;5.80;90.80;;;;;;5015593;28;20036;-79
2021/03/04 04:20:11;;;;;;;66.22;35.33;;;5.70;91.50;;;;;;4989089;28;20033;-79
2021/03/04 04:22:37;;;;;;;89.25;41.33;;;5.70;90.40;;;;;;4983653;28;20041;-79
2021/03/04 04:25:03;;;;;;;88.43;44.90;;;5.70;90.30;;;;;;4978318;28;20054;-79
2021/03/04 04:27:28;;;;;;;96.20;44.03;;;5.70;90.80;;;;;;4985719;28;20553;-79
2021/03/04 04:29:54;;;;;;;86.05;42.53;;;5.50;91.40;;;;;;5018659;28;20061;-78
2021/03/04 04:32:20;;;;;;;89.00;45.28;;;5.60;91.00;;;;;;4989369;28;20057;-79
2021/03/04 04:34:45;;;;;;;86.55;42.25;;;5.50;90.60;;;;;;5022775;28;20117;-79
2021/03/04 04:37:11;;;;;;;75.25;35.00;;;5.40;91.10;;;;;;4980546;28;20037;-79
2021/03/04 04:39:36;;;;;;;58.83;28.90;;;5.40;91.00;;;;;;4973719;28;20037;-79
2021/03/04 04:42:02;;;;;;;89.20;45.15;;;5.50;90.20;;;;;;5019007;28;20045;-79
2021/03/04 04:44:28;;;;;;;94.57;46.05;;;5.40;90.50;;;;;;4990703;28;20028;-78
2021/03/04 04:46:53;;;;;;;87.78;43.95;;;5.20;91.30;;;;;;5004927;28;20033;-78
2021/03/04 04:49:19;;;;;;;92.85;42.92;;;5.10;91.70;;;;;;4991559;28;20247;-79
2021/03/04 04:51:44;;;;;;;91.10;42.03;;;5.10;91.70;;;;;;5001489;28;20567;-79
2021/03/04 04:54:10;;;;;;;92.07;45.08;;;5.00;91.40;;;;;;4972014;28;20442;-79
2021/03/04 04:56:36;;;;;;;85.13;43.55;;;5.00;91.50;;;;;;5018840;28;20037;-79
2021/03/04 04:59:01;;;;;;;75.75;35.83;;;5.00;91.50;;;;;;5002396;28;20510;-79
2021/03/04 05:01:27;;;;;;;94.43;43.38;;;5.20;90.50;;;;;;4994438;28;20100;-78
2021/03/04 05:03:52;;;;;;;95.95;43.47;;;5.20;90.60;;;;;;4990683;28;20492;-78
2021/03/04 05:06:19;;;;;;;89.68;43.28;;;5.20;90.60;;;;;;4974045;28;20108;-79
2021/03/04 05:08:44;;;;;;;91.47;44.55;;;5.10;90.80;;;;;;5004223;28;20044;-78
2021/03/04 05:11:10;;;;;;;95.28;43.72;;;5.00;91.10;;;;;;4978468;28;20029;-79
2021/03/04 05:13:35;;;;;;;96.90;46.80;;;4.90;91.80;;;;;;4986234;28;20385;-78
2021/03/04 05:16:01;;;;;;;98.78;45.10;;;4.90;91.70;;;;;;4991948;28;20551;-79
2021/03/04 05:18:27;;;;;;;99.95;42.83;;;4.90;92.40;;;;;;4980438;28;20030;-78
2021/03/04 05:20:53;;;;;;;102.55;44.92;;;4.90;92.40;;;;;;4999763;28;20037;-78
2021/03/04 05:23:18;;;;;;;108.65;50.20;;;4.90;92.50;;;;;;5007450;28;20040;-78
2021/03/04 05:25:44;;;;;;;107.30;47.80;;;5.00;92.70;;;;;;5001907;28;20452;-78
2021/03/04 05:28:09;;;;;;;111.80;53.55;;;5.00;92.80;;;;;;4974004;28;20036;-78
2021/03/04 05:30:35;;;;;;;112.85;49.78;;;5.00;92.40;;;;;;4982918;28;20033;-78
2021/03/04 05:33:00;;;;;;;120.28;49.28;;;5.00;91.80;;;;;;4998702;28;20033;-79
2021/03/04 05:35:26;;;;;;;141.23;60.45;;;5.00;92.10;;;;;;4991964;28;20042;-78
2021/03/04 05:37:52;;;;;;;112.00;48.10;;;5.00;92.90;;;;;;4986943;28;20144;-78
2021/03/04 05:40:18;;;;;;;134.65;53.47;;;5.00;92.80;;;;;;5009559;28;20039;-79
2021/03/04 05:42:43;;;;;;;133.25;54.03;;;5.00;92.40;;;;;;5004182;28;20124;-78
2021/03/04 05:45:12;;;;;;;124.93;48.92;;;5.00;92.50;;;;;;4990293;28;20025;-78
2021/03/04 05:47:39;;;;;;;127.90;48.35;;;5.00;92.40;;;;;;5002695;28;20390;-78
2021/03/04 05:50:06;;;;;;;142.68;58.08;;;5.10;92.80;;;;;;5004588;28;20422;-78
2021/03/04 05:52:39;;;;;;;128.50;53.42;;;5.10;93.30;;;;;;4999703;28;20033;-78
2021/03/04 05:55:05;;;;;;;116.72;47.08;;;5.10;92.70;;;;;;4999558;28;20872;-78
2021/03/04 05:57:31;;;;;;;150.55;60.95;;;5.10;93.40;;;;;;4997063;28;20109;-79
2021/03/04 05:59:56;;;;;;;148.40;56.95;;;5.10;93.10;;;;;;4989511;28;20144;-78
2021/03/04 06:02:23;;;;;;;139.48;55.50;;;5.00;93.40;;;;;;4978876;28;20112;-78
2021/03/04 06:04:49;;;;;;;146.80;57.03;;;5.10;93.20;;;;;;5004014;28;20489;-78
2021/03/04 06:07:15;;;;;;;148.73;59.85;;;5.10;93.20;;;;;;5008230;28;20032;-78
2021/03/04 06:09:41;;;;;;;162.38;56.05;;;5.10;93.30;;;;;;4995253;28;20034;-79
2021/03/04 06:12:07;;;;;;;153.18;54.88;;;5.10;93.40;;;;;;4993869;28;20045;-78
2021/03/04 06:14:34;;;;;;;160.55;62.10;;;5.10;93.40;;;;;;4971061;28;20042;-78
2021/03/04 06:17:18;;;;;;;157.23;58.55;;;5.20;93.90;;;;;;4989556;28;20040;-79
2021/03/04 06:20:00;;;;;;;167.32;56.60;;;5.10;93.10;;;;;;4969496;28;20512;-78
2021/03/04 06:22:30;;;;;;;167.88;55.92;;;5.10;93.50;;;;;;4972725;28;20033;-78
2021/03/04 06:24:56;;;;;;;200.25;61.05;;;5.20;93.10;;;;;;5005855;28;20409;-78
2021/03/04 06:27:29;;;;;;;220.13;63.75;;;5.20;93.10;;;;;;4993531;28;20389;-79
2021/03/04 06:29:55;;;;;;;222.85;63.83;;;5.20;93.60;;;;;;5005470;28;20799;-78
2021/03/04 06:32:23;;;;;;;231.98;71.60;;;5.20;93.30;;;;;;4994161;28;20037;-79
2021/03/04 06:35:02;;;;;;;231.27;63.78;;;5.30;93.20;;;;;;4987233;28;20040;-79
2021/03/04 06:37:29;;;;;;;189.57;55.55;;;5.30;92.80;;;;;;5001248;28;20029;-79
2021/03/04 06:39:54;;;;;;;212.18;62.67;;;5.40;92.70;;;;;;5005280;28;20037;-78
2021/03/04 06:42:20;;;;;;;210.18;60.63;;;5.40;92.80;;;;;;4993956;28;20485;-78
2021/03/04 06:44:53;;;;;;;215.00;64.57;;;5.40;92.90;;;;;;5002721;28;20037;-79
2021/03/04 06:47:22;;;;;;;210.00;58.83;;;5.50;92.70;;;;;;4990811;28;20104;-79
2021/03/04 06:49:48;;;;;;;236.77;67.47;;;5.50;92.70;;;;;;5017082;28;20034;-79
2021/03/04 06:52:23;;;;;;;260.75;74.32;;;5.60;92.20;;;;;;4990626;28;20052;-78
2021/03/04 06:54:50;;;;;;;268.00;78.45;;;5.50;93.30;;;;;;5013143;28;20535;-79
2021/03/04 06:57:15;;;;;;;210.57;62.10;;;5.60;94.00;;;;;;4987088;28;20484;-78
2021/03/04 06:59:44;;;;;;;130.25;38.05;;;5.60;93.30;;;;;;5024062;28;20049;-78
2021/03/04 07:02:10;;;;;;;235.50;67.50;;;5.80;91.60;;;;;;5008390;28;20033;-79
2021/03/04 07:04:36;;;;;;;229.30;66.05;;;5.80;92.00;;;;;;5008681;28;20048;-78
2021/03/04 07:07:03;;;;;;;249.50;66.35;;;5.70;92.30;;;;;;4979729;28;20048;-78
2021/03/04 07:09:29;;;;;;;253.00;67.50;;;5.70;92.10;;;;;;4979678;28;20041;-78
2021/03/04 07:11:54;;;;;;;284.00;77.70;;;5.70;91.90;;;;;;5007192;28;20030;-79
2021/03/04 07:14:20;;;;;;;253.10;70.28;;;5.70;92.10;;;;;;5003439;28;20147;-79
2021/03/04 07:16:45;;;;;;;180.80;54.72;;;5.70;92.10;;;;;;5002204;28;20030;-79
2021/03/04 07:19:12;;;;;;;246.77;67.78;;;5.70;91.60;;;;;;4990262;28;20029;-81
2021/03/04 07:21:39;;;;;;;250.20;72.28;;;5.70;91.50;;;;;;5021435;28;20512;-80
2021/03/04 07:24:05;;;;;;;194.48;59.40;;;5.70;91.70;;;;;;5005487;28;20034;-80
2021/03/04 07:26:31;;;;;;;158.95;52.78;;;5.70;91.30;;;;;;4976493;28;20044;-80
2021/03/04 07:28:56;;;;;;;176.52;55.70;;;5.70;91.30;;;;;;5021802;28;20037;-80
2021/03/04 07:31:22;;;;;;;172.85;53.58;;;5.80;90.60;;;;;;4976754;28;20033;-80
2021/03/04 07:33:48;;;;;;;157.55;51.80;;;5.90;90.30;;;;;;5005016;28;20042;-80
2021/03/04 07:36:15;;;;;;;156.27;53.30;;;5.90;90.00;;;;;;4977066;28;20064;-79
2021/03/04 07:38:40;;;;;;;158.75;53.85;;;5.90;90.00;;;;;;5020158;28;20034;-80
2021/03/04 07:41:09;;;;;;;152.30;51.00;;;5.90;90.20;;;;;;4989723;28;20084;-80
2021/03/04 07:43:54;;;;;;;176.02;54.53;;;5.90;90.20;;;;;;5009103;28;20029;-80
2021/03/04 07:46:26;;;;;;;160.88;54.72;;;5.90;90.00;;;;;;4987521;28;20093;-80
2021/03/04 07:48:52;;;;;;;182.23;61.17;;;5.70;90.40;;;;;;4988783;28;20541;-79
2021/03/04 07:51:18;;;;;;;200.98;65.47;;;5.70;90.70;;;;;;4986904;28;20104;-80
2021/03/04 07:53:44;;;;;;;254.70;80.72;;;5.60;91.10;;;;;;5010200;28;20444;-79
2021/03/04 07:56:26;;;;;;;270.17;84.53;;;5.50;92.50;;;;;;4977367;28;20036;-80
2021/03/04 07:58:55;;;;;;;195.30;62.08;;;5.40;93.10;;;;;;5005501;28;20038;-79
2021/03/04 08:01:21;;;;;;;248.52;75.07;;;5.50;92.10;;;;;;4995792;28;20132;-80
2021/03/04 08:03:48;;;;;;;225.13;72.68;;;5.60;91.80;;;;;;5006770;28;20124;-79
2021/03/04 08:06:13;;;;;;;229.98;74.20;;;5.60;91.50;;;;;;5006994;28;20034;-79
2021/03/04 08:08:39;;;;;;;224.13;70.18;;;5.60;92.20;;;;;;4996297;28;20041;-80
2021/03/04 08:11:05;;;;;;;234.27;76.25;;;5.50;92.10;;;;;;4984469;28;20029;-80
2021/03/04 08:13:34;;;;;;;221.13;72.88;;;5.50;92.30;;;;;;4987255;28;20034;-80
2021/03/04 08:16:00;;;;;;;238.10;81.43;;;5.50;92.90;;;;;;5004203;28;20084;-80
2021/03/04 08:18:26;;;;;;;242.20;76.18;;;5.40;93.00;;;;;;4973344;28;20069;-80
2021/03/04 08:20:53;;;;;;;222.73;77.40;;;5.40;93.20;;;;;;5003392;28;20033;-80
2021/03/04 08:23:19;;;;;;;265.38;81.82;;;5.50;93.40;;;;;;4991346;28;20085;-80
2021/03/04 08:25:45;;;;;;;274.75;83.90;;;5.40;93.40;;;;;;5002589;28;20055;-80
2021/03/04 08:28:23;;;;;;;276.20;81.50;;;5.40;93.70;;;;;;4980175;28;20030;-80
2021/03/04 08:30:48;;;;;;;232.07;75.28;;;5.40;93.70;;;;;;4974908;28;20382;-80
2021/03/04 08:33:14;;;;;;;201.55;70.82;;;5.40;93.80;;;;;;4981639;28;20025;-80
2021/03/04 08:35:45;;;;;;;200.10;69.70;;;5.40;93.60;;;;;;5006439;28;20033;-80
2021/03/04 08:38:13;;;;;;;200.25;66.60;;;5.40;93.60;;;;;;4975565;28;20438;-80
2021/03/04 08:40:47;;;;;;;165.05;56.53;;;5.40;93.50;;;;;;4984413;28;20398;-79
2021/03/04 08:43:20;;;;;;;157.10;51.78;;;5.30;94.40;;;;;;4990437;28;20489;-80
2021/03/04 08:45:46;;;;;;;143.88;56.05;;;5.30;93.80;;;;;;5017425;28;20026;-80
2021/03/04 08:48:13;;;;;;;117.57;47.10;;;5.30;94.10;;;;;;4972760;28;20090;-80
2021/03/04 08:50:40;;;;;;;100.82;41.65;;;5.30;94.30;;;;;;4966020;28;20022;-80
2021/03/04 08:53:13;;;;;;;87.53;39.33;;;5.30;94.00;;;;;;4975497;28;20128;-80
2021/03/04 08:55:52;;;;;;;86.28;36.25;;;5.20;94.30;;;;;;4974039;28;20077;-80
2021/03/04 08:58:18;;;;;;;81.43;37.42;;;5.20;94.30;;;;;;4983843;28;20124;-80
2021/03/04 09:00:51;;;;;;;76.60;33.03;;;5.10;94.40;;;;;;4999222;28;20028;-80
2021/03/04 09:03:16;;;;;;;82.88;37.20;;;5.10;94.20;;;;;;4975896;28;20037;-80
2021/03/04 09:05:42;;;;;;;69.50;31.27;;;5.20;94.30;;;;;;5022980;28;20033;-80
2021/03/04 09:08:09;;;;;;;71.38;31.15;;;5.20;94.30;;;;;;4985982;28;20041;-80
2021/03/04 09:10:46;;;;;;;62.20;27.27;;;5.20;94.50;;;;;;5002593;28;20055;-80
2021/03/04 09:13:17;;;;;;;55.00;23.98;;;5.10;94.70;;;;;;4994110;28;20025;-80
2021/03/04 09:15:48;;;;;;;50.55;23.40;;;5.10;94.80;;;;;;5019333;28;20029;-80
2021/03/04 09:18:15;;;;;;;81.88;31.00;;;5.10;94.70;;;;;;4989952;28;20092;-80
2021/03/04 09:20:43;;;;;;;110.43;41.05;;;5.20;94.70;;;;;;5013242;28;20129;-81
2021/03/04 09:23:08;;;;;;;84.25;33.13;;;5.20;94.70;;;;;;5002431;28;20144;-81
2021/03/04 09:25:34;;;;;;;73.30;30.55;;;5.20;94.40;;;;;;4992506;28;20092;-80
2021/03/04 09:27:59;;;;;;;72.63;29.50;;;5.30;93.60;;;;;;5002026;28;20260;-80
2021/03/04 09:30:29;;;;;;;122.00;44.08;;;5.40;93.30;;;;;;5003461;28;20026;-80
2021/03/04 09:32:58;;;;;;;131.05;43.33;;;5.40;93.60;;;;;;5000735;28;20026;-80
2021/03/04 09:35:23;;;;;;;119.20;45.65;;;5.30;93.30;;;;;;4984393;28;20038;-80
2021/03/04 09:37:49;;;;;;;127.82;48.75;;;5.30;93.50;;;;;;4998315;28;20026;-81
2021/03/04 09:40:31;;;;;;;116.32;44.60;;;5.30;94.00;;;;;;4980463;28;20604;-80
2021/03/04 09:42:57;;;;;;;134.85;48.55;;;5.30;94.10;;;;;;4991283;28;20036;-80
2021/03/04 09:45:22;;;;;;;119.05;45.65;;;5.30;93.90;;;;;;4989741;28;20030;-80
2021/03/04 09:47:49;;;;;;;89.40;35.20;;;5.30;94.00;;;;;;5014621;28;20501;-80
2021/03/04 09:50:20;;;;;;;92.35;37.30;;;5.40;93.50;;;;;;4992589;28;20108;-80
2021/03/04 09:52:45;;;;;;;93.10;37.88;;;5.40;93.40;;;;;;4985508;28;20057;-80
2021/03/04 09:55:11;;;;;;;120.63;44.67;;;5.50;93.30;;;;;;4986389;28;20045;-80
2021/03/04 09:57:40;;;;;;;110.70;43.33;;;5.50;93.40;;;;;;5002895;28;20038;-80
2021/03/04 10:00:17;;;;;;;96.65;39.50;;;5.50;93.70;;;;;;4990172;28;20022;-81
2021/03/04 10:02:44;;;;;;;88.85;38.42;;;5.50;93.30;;;;;;4999406;28;20026;-81
2021/03/04 10:05:13;;;;;;;93.82;39.53;;;5.50;93.00;;;;;;4987944;28;20120;-80
2021/03/04 10:07:39;;;;;;;81.57;36.67;;;5.50;93.50;;;;;;4998221;28;20105;-80
2021/03/04 10:10:10;;;;;;;87.30;39.53;;;5.60;93.80;;;;;;4971694;28;20128;-80
2021/03/04 10:12:44;;;;;;;75.75;35.40;;;5.50;94.40;;;;;;4973408;28;20346;-81
2021/03/04 10:15:11;;;;;;;78.28;32.72;;;5.50;94.40;;;;;;4997882;28;20467;-80
2021/03/04 10:17:41;;;;;;;70.43;31.73;;;5.50;94.50;;;;;;5011658;28;20116;-81
2021/03/04 10:20:09;;;;;;;56.25;28.55;;;5.50;94.90;;;;;;4994808;28;20109;-80
2021/03/04 10:22:34;;;;;;;59.17;26.80;;;5.60;94.80;;;;;;4987241;28;20104;-80
2021/03/04 10:25:01;;;;;;;54.17;23.80;;;5.60;95.00;;;;;;5004917;28;20470;-80
2021/03/04 10:27:27;;;;;;;45.92;21.75;;;5.60;95.20;;;;;;4989340;28;20045;-81
2021/03/04 10:29:53;;;;;;;36.25;18.52;;;5.60;95.20;;;;;;5007106;28;20038;-80
2021/03/04 10:32:19;;;;;;;35.17;18.45;;;5.70;95.00;;;;;;4993212;28;20117;-80
2021/03/04 10:34:44;;;;;;;41.63;19.88;;;5.70;95.00;;;;;;5004307;28;20125;-80
2021/03/04 10:37:10;;;;;;;45.53;21.77;;;5.70;94.90;;;;;;4989224;28;20032;-80
2021/03/04 10:39:36;;;;;;;43.67;18.10;;;5.70;95.10;;;;;;4995347;28;20531;-80
2021/03/04 10:42:01;;;;;;;39.47;17.35;;;5.80;95.20;;;;;;4999469;28;20030;-80
2021/03/04 10:44:27;;;;;;;41.13;18.23;;;5.80;95.40;;;;;;5000502;28;20030;-80
2021/03/04 10:46:52;;;;;;;38.38;16.85;;;5.90;95.40;;;;;;5001412;28;20474;-81
2021/03/04 10:49:18;;;;;;;37.20;14.75;;;5.90;95.30;;;;;;4975076;28;20466;-80
2021/03/04 10:51:44;;;;;;;27.23;12.50;;;5.90;95.30;;;;;;4968765;28;20038;-80
2021/03/04 10:54:10;;;;;;;25.60;12.73;;;5.90;95.40;;;;;;4974345;28;20674;-80
2021/03/04 10:56:36;;;;;;;31.05;14.15;;;6.00;95.00;;;;;;5005489;28;20128;-80
2021/03/04 10:59:02;;;;;;;22.40;11.23;;;6.10;94.70;;;;;;5008343;28;20409;-80
2021/03/04 11:01:35;;;;;;;21.05;11.50;;;6.10;94.80;;;;;;4969441;28;20528;-80
2021/03/04 11:04:00;;;;;;;21.73;11.43;;;6.20;94.90;;;;;;4993605;28;20029;-80
2021/03/04 11:06:26;;;;;;;23.92;10.02;;;6.20;94.80;;;;;;4997146;28;20401;-80
2021/03/04 11:08:51;;;;;;;18.98;11.13;;;6.30;95.30;;;;;;5002525;28;20033;-82
2021/03/04 11:11:17;;;;;;;18.15;9.35;;;6.30;95.50;;;;;;5004995;28;20385;-82
2021/03/04 11:13:42;;;;;;;20.63;11.35;;;6.30;95.50;;;;;;4992666;28;20105;-81
2021/03/04 11:16:08;;;;;;;20.50;10.40;;;6.40;95.60;;;;;;4983285;28;20026;-80
2021/03/04 11:18:33;;;;;;;18.48;9.93;;;6.40;95.80;;;;;;4988131;28;20116;-80
2021/03/04 11:20:59;;;;;;;19.85;10.20;;;6.50;95.80;;;;;;4993837;28;20175;-80
2021/03/04 11:23:24;;;;;;;22.73;11.48;;;6.50;95.60;;;;;;5004737;28;20481;-80
2021/03/04 11:25:50;;;;;;;27.15;13.18;;;6.50;95.40;;;;;;4978882;28;20396;-80
2021/03/04 11:28:15;;;;;;;29.17;13.40;;;6.60;95.70;;;;;;4990497;28;20056;-80
2021/03/04 11:30:41;;;;;;;31.05;14.35;;;6.60;95.80;;;;;;5001845;28;20042;-80
2021/03/04 11:33:09;;;;;;;37.83;20.08;;;6.60;96.00;;;;;;4991653;28;20120;-80
2021/03/04 11:35:34;;;;;;;45.22;19.55;;;6.60;96.20;;;;;;4989008;28;20038;-80
2021/03/04 11:38:00;;;;;;;45.95;20.13;;;6.60;96.30;;;;;;5003866;28;20034;-79
2021/03/04 11:40:25;;;;;;;83.55;34.63;;;6.50;95.90;;;;;;5002504;28;20026;-80
2021/03/04 11:42:51;;;;;;;100.35;39.05;;;6.50;96.50;;;;;;5005906;28;20036;-80
2021/03/04 11:45:16;;;;;;;115.55;44.00;;;6.50;96.50;;;;;;5007041;28;20034;-80
2021/03/04 11:47:42;;;;;;;101.20;37.42;;;6.50;96.70;;;;;;5018783;28;20022;-79
2021/03/04 11:50:08;;;;;;;108.35;38.88;;;6.40;96.60;;;;;;5020790;28;20026;-80
2021/03/04 11:52:34;;;;;;;91.78;34.47;;;6.40;96.50;;;;;;5003894;28;20687;-80
2021/03/04 11:54:59;;;;;;;91.40;36.70;;;6.40;96.60;;;;;;4985737;28;20050;-80
2021/03/04 11:57:25;;;;;;;100.93;38.70;;;6.30;96.50;;;;;;4995650;28;20030;-80
2021/03/04 11:59:51;;;;;;;109.90;39.08;;;6.30;96.50;;;;;;5002024;28;20378;-80
2021/03/04 12:02:17;;;;;;;112.43;38.85;;;6.30;96.30;;;;;;5010596;28;20025;-80
2021/03/04 12:04:42;;;;;;;108.10;37.33;;;6.40;95.80;;;;;;5005082;28;20033;-79
2021/03/04 12:07:08;;;;;;;118.50;41.25;;;6.40;95.60;;;;;;5005584;28;20030;-81
2021/03/04 12:09:34;;;;;;;105.03;38.40;;;6.40;95.40;;;;;;4986393;28;20042;-80
2021/03/04 12:11:59;;;;;;;115.22;42.25;;;6.40;95.30;;;;;;4992092;28;20048;-81
2021/03/04 12:14:25;;;;;;;137.10;47.53;;;6.40;95.20;;;;;;5007315;28;20025;-80
2021/03/04 12:16:52;;;;;;;151.88;47.40;;;6.40;95.70;;;;;;5006470;28;20036;-80
2021/03/04 12:19:18;;;;;;;134.48;46.78;;;6.40;95.90;;;;;;4982956;28;20025;-80
2021/03/04 12:21:44;;;;;;;117.07;41.03;;;6.30;96.20;;;;;;5004823;28;20384;-79
2021/03/04 12:24:09;;;;;;;99.70;33.47;;;6.30;96.10;;;;;;4990785;28;20040;-81
2021/03/04 12:26:35;;;;;;;106.15;35.50;;;6.30;96.10;;;;;;4998287;28;20117;-81
2021/03/04 12:29:01;;;;;;;101.03;33.95;;;6.30;95.80;;;;;;4997888;28;20048;-81
2021/03/04 12:31:26;;;;;;;78.72;28.13;;;6.30;95.60;;;;;;4993752;28;20084;-80